Terminal Aerodrome Forecast
Issued by NWS Northern Indiana

Home | Current Version | Previous Version | Graphics & Text | Print | Product List | Glossary On
Versions: 1 2 3 4 5 6 7 8 9 10 11 12
000
FTUS43 KIWX 301100
TAFFWA
TAF
KFWA 301120Z 3012/3112 27010KT P6SM SCT250
     FM301530 28014G22KT P6SM SCT060
     FM310000 21006KT P6SM BKN060
     FM310500 22015KT P6SM BKN080 WS020/25055KT=

USA.gov is the U.S. government's official web portal to all federal, state and local government web resources and services.